createdAt,value
2017-09-29T00:00:01.000Z,18.6
2017-09-29T00:10:01.000Z,18.6
2017-09-29T00:20:01.000Z,18.6
2017-09-29T00:30:01.000Z,18.6
2017-09-29T00:40:01.000Z,18.6
2017-09-29T00:50:01.000Z,18.6
2017-09-29T01:00:02.000Z,18.6
2017-09-29T01:10:01.000Z,18.6
2017-09-29T01:20:01.000Z,18.6
2017-09-29T01:30:01.000Z,18.5
2017-09-29T01:40:01.000Z,18.5
2017-09-29T01:50:01.000Z,18.5
2017-09-29T02:00:01.000Z,18.5
2017-09-29T02:10:02.000Z,18.5
2017-09-29T02:20:01.000Z,18.5
2017-09-29T02:30:05.000Z,18.4
2017-09-29T02:40:01.000Z,18.4
2017-09-29T02:50:01.000Z,18.4
2017-09-29T03:00:01.000Z,18.4
2017-09-29T03:10:02.000Z,18.4
2017-09-29T03:20:01.000Z,18.4
2017-09-29T03:30:01.000Z,18.4
2017-09-29T03:40:01.000Z,18.4
2017-09-29T03:50:02.000Z,18.4
2017-09-29T04:00:01.000Z,18.4
2017-09-29T04:10:01.000Z,18.4
2017-09-29T04:20:02.000Z,18.4
2017-09-29T04:30:01.000Z,18.4
2017-09-29T04:40:01.000Z,18.4
2017-09-29T04:50:02.000Z,18.4
2017-09-29T05:00:01.000Z,18.4
2017-09-29T05:10:05.000Z,18.4
2017-09-29T05:20:02.000Z,18.4
2017-09-29T05:30:01.000Z,18.4
2017-09-29T05:40:01.000Z,18.4
2017-09-29T05:50:01.000Z,18.4
2017-09-29T06:00:01.000Z,18.4
2017-09-29T06:10:01.000Z,18.4
2017-09-29T06:20:02.000Z,18.4
2017-09-29T06:30:01.000Z,18.4
2017-09-29T06:40:01.000Z,18.5
2017-09-29T06:50:02.000Z,18.5
2017-09-29T07:00:01.000Z,18.6
2017-09-29T07:10:01.000Z,18.6
2017-09-29T07:20:01.000Z,18.6
2017-09-29T07:30:01.000Z,18.6
2017-09-29T07:40:01.000Z,18.6
2017-09-29T07:50:05.000Z,18.6
2017-09-29T08:00:01.000Z,18.6
2017-09-29T08:10:02.000Z,18.6
2017-09-29T08:20:01.000Z,18.6
2017-09-29T08:30:01.000Z,18.6
2017-09-29T08:40:02.000Z,18.6
2017-09-29T08:50:01.000Z,18.6
2017-09-29T09:00:01.000Z,18.8
2017-09-29T09:10:02.000Z,18.8
2017-09-29T09:20:01.000Z,18.8
2017-09-29T09:30:01.000Z,18.9
2017-09-29T09:40:01.000Z,19
2017-09-29T09:50:02.000Z,19
2017-09-29T10:00:02.000Z,19.1
2017-09-29T10:10:01.000Z,19.1
2017-09-29T10:20:01.000Z,19.1
2017-09-29T10:30:05.000Z,19.1
2017-09-29T10:40:01.000Z,19.1
2017-09-29T10:50:01.000Z,19.1
2017-09-29T11:00:01.000Z,19.1
2017-09-29T11:10:01.000Z,19.3
2017-09-29T11:20:01.000Z,19.6
2017-09-29T11:30:02.000Z,19.6
2017-09-29T11:40:01.000Z,19.7
2017-09-29T11:50:01.000Z,19.8
2017-09-29T12:00:01.000Z,19.8
2017-09-29T12:10:02.000Z,19.8
2017-09-29T12:20:01.000Z,19.8
2017-09-29T12:30:01.000Z,19.8
2017-09-29T12:40:01.000Z,19.8
2017-09-29T12:50:01.000Z,19.9
2017-09-29T13:00:01.000Z,19.9
2017-09-29T13:10:05.000Z,19.9
2017-09-29T13:20:01.000Z,20
2017-09-29T13:30:01.000Z,20.1
2017-09-29T13:40:01.000Z,20.1
2017-09-29T13:50:01.000Z,20.2
2017-09-29T14:00:01.000Z,20.3
2017-09-29T14:10:01.000Z,20.3
2017-09-29T14:20:01.000Z,20.3
2017-09-29T14:30:01.000Z,20.3
2017-09-29T14:40:01.000Z,20.3
2017-09-29T14:50:01.000Z,20.3
2017-09-29T15:00:02.000Z,20.3
2017-09-29T15:10:01.000Z,20.3
2017-09-29T15:20:01.000Z,20.3
2017-09-29T15:30:02.000Z,20.3
2017-09-29T15:40:01.000Z,20.3
2017-09-29T15:50:05.000Z,20.3
2017-09-29T16:00:01.000Z,20.3
2017-09-29T16:10:01.000Z,20.3
2017-09-29T16:20:01.000Z,20.3
2017-09-29T16:30:02.000Z,20.3
2017-09-29T16:40:01.000Z,20.3
2017-09-29T16:50:01.000Z,20.2
2017-09-29T17:00:02.000Z,20.2
2017-09-29T17:10:02.000Z,20.1
2017-09-29T17:20:01.000Z,20
2017-09-29T17:30:01.000Z,20
2017-09-29T17:40:02.000Z,19.9
2017-09-29T17:50:01.000Z,19.9
2017-09-29T18:00:01.000Z,19.9
2017-09-29T18:10:01.000Z,19.9
2017-09-29T18:20:01.000Z,20
2017-09-29T18:30:05.000Z,20
2017-09-29T18:40:02.000Z,20
2017-09-29T18:50:01.000Z,20
2017-09-29T19:00:01.000Z,20
2017-09-29T19:10:02.000Z,19.9
2017-09-29T19:20:01.000Z,19.9
2017-09-29T19:30:01.000Z,19.9
2017-09-29T19:40:02.000Z,20
2017-09-29T19:50:01.000Z,20
2017-09-29T20:00:01.000Z,20
2017-09-29T20:10:01.000Z,20
2017-09-29T20:20:01.000Z,20
2017-09-29T20:30:01.000Z,20
2017-09-29T20:40:01.000Z,20
2017-09-29T20:50:01.000Z,20
2017-09-29T21:00:01.000Z,20
2017-09-29T21:10:05.000Z,20
2017-09-29T21:20:01.000Z,20
2017-09-29T21:30:01.000Z,20
2017-09-29T21:40:02.000Z,20
2017-09-29T21:50:01.000Z,20
2017-09-29T22:00:01.000Z,20
2017-09-29T22:10:02.000Z,20
2017-09-29T22:20:01.000Z,20
2017-09-29T22:30:01.000Z,20
2017-09-29T22:40:02.000Z,19.9
2017-09-29T22:50:01.000Z,19.9
2017-09-29T23:00:01.000Z,19.8
2017-09-29T23:10:01.000Z,19.7
2017-09-29T23:20:01.000Z,19.7
2017-09-29T23:30:01.000Z,19.7
2017-09-29T23:40:01.000Z,19.7
2017-09-29T23:50:05.000Z,19.6
